sensor_id;sensor_type;location;lat;lon;timestamp;pressure;altitude;pressure_sealevel;temperature;humidity
10176;BME280;18221;38.704;0.152;2022-12-18T00:00:28;99600.31;;;16.93;53.69
10176;BME280;18221;38.704;0.152;2022-12-18T00:12:04;99612.38;;;16.81;53.50
10176;BME280;18221;38.704;0.152;2022-12-18T00:14:32;99620.91;;;16.85;53.55
10176;BME280;18221;38.704;0.152;2022-12-18T00:17:01;99615.38;;;16.78;53.07
10176;BME280;18221;38.704;0.152;2022-12-18T00:19:29;99619.34;;;16.66;52.86
10176;BME280;18221;38.704;0.152;2022-12-18T00:21:58;99616.69;;;16.66;52.95
10176;BME280;18221;38.704;0.152;2022-12-18T00:24:26;99625.56;;;16.66;52.65
10176;BME280;18221;38.704;0.152;2022-12-18T00:26:55;99624.22;;;16.62;52.51
10176;BME280;18221;38.704;0.152;2022-12-18T00:29:24;99621.88;;;16.59;52.51
10176;BME280;18221;38.704;0.152;2022-12-18T00:31:52;99623.56;;;16.60;52.19
10176;BME280;18221;38.704;0.152;2022-12-18T00:34:21;99611.66;;;16.63;51.66
10176;BME280;18221;38.704;0.152;2022-12-18T00:36:49;99611.66;;;16.63;51.57
10176;BME280;18221;38.704;0.152;2022-12-18T00:39:17;99620.38;;;16.65;51.32
10176;BME280;18221;38.704;0.152;2022-12-18T00:41:45;99619.34;;;16.66;51.40
10176;BME280;18221;38.704;0.152;2022-12-18T00:44:32;99611.50;;;16.64;51.17
10176;BME280;18221;38.704;0.152;2022-12-18T00:47:00;99619.00;;;16.61;50.93
10176;BME280;18221;38.704;0.152;2022-12-18T00:49:28;99633.22;;;16.53;51.01
10176;BME280;18221;38.704;0.152;2022-12-18T00:51:56;99630.56;;;16.61;50.75
10176;BME280;18221;38.704;0.152;2022-12-18T00:54:25;99626.72;;;16.64;50.77
10176;BME280;18221;38.704;0.152;2022-12-18T00:56:53;99636.16;;;16.68;50.70
10176;BME280;18221;38.704;0.152;2022-12-18T00:59:21;99632.94;;;16.64;50.75
10176;BME280;18221;38.704;0.152;2022-12-18T01:01:51;99640.97;;;16.64;50.63
10176;BME280;18221;38.704;0.152;2022-12-18T01:04:19;99639.47;;;16.62;50.81
10176;BME280;18221;38.704;0.152;2022-12-18T01:06:48;99632.28;;;16.62;50.49
10176;BME280;18221;38.704;0.152;2022-12-18T01:09:17;99640.97;;;16.64;50.74
10176;BME280;18221;38.704;0.152;2022-12-18T01:11:46;99640.47;;;16.61;50.82
10176;BME280;18221;38.704;0.152;2022-12-18T01:14:14;99642.59;;;16.49;51.11
10176;BME280;18221;38.704;0.152;2022-12-18T01:16:42;99645.22;;;16.41;51.44
10176;BME280;18221;38.704;0.152;2022-12-18T01:19:12;99653.50;;;16.56;51.30
10176;BME280;18221;38.704;0.152;2022-12-18T01:21:41;99652.34;;;16.58;51.16
10176;BME280;18221;38.704;0.152;2022-12-18T01:24:12;99652.16;;;16.52;51.11
10176;BME280;18221;38.704;0.152;2022-12-18T01:26:40;99649.00;;;16.56;50.79
10176;BME280;18221;38.704;0.152;2022-12-18T01:29:09;99655.38;;;16.63;50.66
10176;BME280;18221;38.704;0.152;2022-12-18T01:31:37;99661.56;;;16.56;50.46
10176;BME280;18221;38.704;0.152;2022-12-18T01:34:06;99663.06;;;16.58;50.34
10176;BME280;18221;38.704;0.152;2022-12-18T01:36:38;99661.91;;;16.61;50.07
10176;BME280;18221;38.704;0.152;2022-12-18T01:39:11;99666.63;;;16.67;50.07
10176;BME280;18221;38.704;0.152;2022-12-18T01:41:40;99663.94;;;16.67;49.78
10176;BME280;18221;38.704;0.152;2022-12-18T01:44:55;99664.59;;;16.61;50.35
10176;BME280;18221;38.704;0.152;2022-12-18T01:47:28;99666.97;;;16.64;50.78
10176;BME280;18221;38.704;0.152;2022-12-18T01:50:04;99671.28;;;16.57;50.86
10176;BME280;18221;38.704;0.152;2022-12-18T01:52:34;99669.53;;;16.48;51.00
10176;BME280;18221;38.704;0.152;2022-12-18T01:55:06;99665.19;;;16.47;51.19
10176;BME280;18221;38.704;0.152;2022-12-18T01:57:35;99667.94;;;16.55;51.15
10176;BME280;18221;38.704;0.152;2022-12-18T02:00:08;99670.31;;;16.58;51.03
10176;BME280;18221;38.704;0.152;2022-12-18T02:02:37;99666.25;;;16.54;51.25
10176;BME280;18221;38.704;0.152;2022-12-18T02:05:08;99674.41;;;16.44;51.20
10176;BME280;18221;38.704;0.152;2022-12-18T02:07:49;99676.47;;;16.58;51.14
10176;BME280;18221;38.704;0.152;2022-12-18T02:10:28;99672.66;;;16.69;50.85
10176;BME280;18221;38.704;0.152;2022-12-18T02:13:11;99679.69;;;16.62;50.68
10176;BME280;18221;38.704;0.152;2022-12-18T02:15:51;99680.84;;;16.59;50.93
10176;BME280;18221;38.704;0.152;2022-12-18T02:18:25;99685.38;;;16.59;50.89
10176;BME280;18221;38.704;0.152;2022-12-18T02:21:07;99678.34;;;16.58;50.90
10176;BME280;18221;38.704;0.152;2022-12-18T02:23:56;99685.78;;;16.46;51.35
10176;BME280;18221;38.704;0.152;2022-12-18T02:26:34;99692.84;;;16.47;51.31
10176;BME280;18221;38.704;0.152;2022-12-18T02:29:09;99697.19;;;16.48;51.45
10176;BME280;18221;38.704;0.152;2022-12-18T02:31:44;99697.03;;;16.50;51.22
10176;BME280;18221;38.704;0.152;2022-12-18T02:34:15;99690.84;;;16.49;51.34
10176;BME280;18221;38.704;0.152;2022-12-18T02:36:46;99689.31;;;16.47;51.21
10176;BME280;18221;38.704;0.152;2022-12-18T02:39:17;99693.16;;;16.44;51.47
10176;BME280;18221;38.704;0.152;2022-12-18T02:41:51;99696.34;;;16.40;51.57
10176;BME280;18221;38.704;0.152;2022-12-18T02:44:19;99693.75;;;16.30;51.86
10176;BME280;18221;38.704;0.152;2022-12-18T02:46:51;99703.16;;;16.34;51.96
10176;BME280;18221;38.704;0.152;2022-12-18T02:49:34;99695.00;;;16.44;51.71
10176;BME280;18221;38.704;0.152;2022-12-18T02:52:15;99690.63;;;16.43;51.80
10176;BME280;18221;38.704;0.152;2022-12-18T02:54:57;99691.59;;;16.34;52.03
10176;BME280;18221;38.704;0.152;2022-12-18T02:57:39;99696.66;;;16.37;51.79
10176;BME280;18221;38.704;0.152;2022-12-18T03:00:14;99698.53;;;16.44;51.78
10176;BME280;18221;38.704;0.152;2022-12-18T03:02:51;99696.47;;;16.38;51.71
10176;BME280;18221;38.704;0.152;2022-12-18T03:05:35;99698.44;;;16.54;51.21
10176;BME280;18221;38.704;0.152;2022-12-18T03:08:10;99692.31;;;16.44;51.77
10176;BME280;18221;38.704;0.152;2022-12-18T03:10:50;99694.69;;;16.47;51.64
10176;BME280;18221;38.704;0.152;2022-12-18T03:13:27;99695.00;;;16.44;51.57
10176;BME280;18221;38.704;0.152;2022-12-18T03:16:00;99701.88;;;16.46;51.39
10176;BME280;18221;38.704;0.152;2022-12-18T03:18:37;99691.50;;;16.51;51.04
10176;BME280;18221;38.704;0.152;2022-12-18T03:21:10;99695.34;;;16.49;51.20
10176;BME280;18221;38.704;0.152;2022-12-18T03:23:44;99692.84;;;16.47;51.17
10176;BME280;18221;38.704;0.152;2022-12-18T03:26:18;99699.81;;;16.58;51.13
10176;BME280;18221;38.704;0.152;2022-12-18T03:28:52;99697.47;;;16.63;50.65
10176;BME280;18221;38.704;0.152;2022-12-18T03:31:23;99698.63;;;16.68;50.47
10176;BME280;18221;38.704;0.152;2022-12-18T03:33:55;99683.91;;;16.64;50.73
10176;BME280;18221;38.704;0.152;2022-12-18T03:36:24;99695.16;;;16.68;50.37
10176;BME280;18221;38.704;0.152;2022-12-18T03:38:53;99698.19;;;16.73;49.94
10176;BME280;18221;38.704;0.152;2022-12-18T03:41:31;99695.63;;;16.72;50.00
10176;BME280;18221;38.704;0.152;2022-12-18T03:44:11;99700.19;;;16.71;49.60
10176;BME280;18221;38.704;0.152;2022-12-18T03:46:51;99693.97;;;16.71;49.32
10176;BME280;18221;38.704;0.152;2022-12-18T03:49:27;99694.66;;;16.73;49.28
10176;BME280;18221;38.704;0.152;2022-12-18T03:52:06;99689.28;;;16.73;49.23
10176;BME280;18221;38.704;0.152;2022-12-18T03:54:39;99694.28;;;16.67;49.01
10176;BME280;18221;38.704;0.152;2022-12-18T03:57:16;99699.84;;;16.74;48.90
10176;BME280;18221;38.704;0.152;2022-12-18T03:59:52;99696.84;;;16.77;48.53
10176;BME280;18221;38.704;0.152;2022-12-18T04:02:24;99693.72;;;16.56;49.00
10176;BME280;18221;38.704;0.152;2022-12-18T04:04:57;99688.28;;;16.40;49.42
10176;BME280;18221;38.704;0.152;2022-12-18T04:07:27;99692.09;;;16.29;49.40
10176;BME280;18221;38.704;0.152;2022-12-18T04:09:58;99694.06;;;16.27;49.10
10176;BME280;18221;38.704;0.152;2022-12-18T04:12:30;99697.75;;;16.26;49.44
10176;BME280;18221;38.704;0.152;2022-12-18T04:15:00;99702.59;;;16.23;49.45
10176;BME280;18221;38.704;0.152;2022-12-18T04:17:28;99704.97;;;16.26;49.69
10176;BME280;18221;38.704;0.152;2022-12-18T04:19:56;99706.66;;;16.27;49.95
10176;BME280;18221;38.704;0.152;2022-12-18T04:22:24;99706.78;;;16.25;50.54
10176;BME280;18221;38.704;0.152;2022-12-18T04:24:52;99706.97;;;16.24;50.53
10176;BME280;18221;38.704;0.152;2022-12-18T04:27:20;99706.22;;;16.14;50.86
10176;BME280;18221;38.704;0.152;2022-12-18T04:29:48;99710.22;;;16.10;50.79
10176;BME280;18221;38.704;0.152;2022-12-18T04:32:18;99713.19;;;16.06;51.24
10176;BME280;18221;38.704;0.152;2022-12-18T04:34:47;99715.19;;;16.04;51.24
10176;BME280;18221;38.704;0.152;2022-12-18T04:37:15;99719.41;;;16.07;51.14
10176;BME280;18221;38.704;0.152;2022-12-18T04:39:43;99730.81;;;16.09;50.99
10176;BME280;18221;38.704;0.152;2022-12-18T04:42:11;99730.28;;;16.05;51.07
10176;BME280;18221;38.704;0.152;2022-12-18T04:44:40;99736.63;;;16.04;51.11
10176;BME280;18221;38.704;0.152;2022-12-18T04:47:08;99737.63;;;16.03;50.63
10176;BME280;18221;38.704;0.152;2022-12-18T04:49:37;99738.47;;;16.04;50.37
10176;BME280;18221;38.704;0.152;2022-12-18T04:52:06;99746.03;;;16.08;50.54
10176;BME280;18221;38.704;0.152;2022-12-18T04:54:34;99746.25;;;16.15;49.95
10176;BME280;18221;38.704;0.152;2022-12-18T04:57:02;99746.44;;;16.22;49.55
10176;BME280;18221;38.704;0.152;2022-12-18T04:59:30;99742.53;;;16.34;49.53
10176;BME280;18221;38.704;0.152;2022-12-18T05:01:59;99747.56;;;16.37;49.22
10176;BME280;18221;38.704;0.152;2022-12-18T05:04:27;99745.03;;;16.35;49.12
10176;BME280;18221;38.704;0.152;2022-12-18T05:06:57;99752.72;;;16.30;49.33
10176;BME280;18221;38.704;0.152;2022-12-18T05:09:25;99758.44;;;16.35;48.93
10176;BME280;18221;38.704;0.152;2022-12-18T05:11:53;99747.56;;;16.37;48.80
10176;BME280;18221;38.704;0.152;2022-12-18T05:14:21;99746.56;;;16.38;48.66
10176;BME280;18221;38.704;0.152;2022-12-18T05:16:49;99743.56;;;16.41;48.72
10176;BME280;18221;38.704;0.152;2022-12-18T05:19:18;99757.50;;;16.44;48.66
10176;BME280;18221;38.704;0.152;2022-12-18T05:21:46;99769.53;;;16.40;48.47
10176;BME280;18221;38.704;0.152;2022-12-18T05:24:16;99766.78;;;16.32;48.94
10176;BME280;18221;38.704;0.152;2022-12-18T05:26:44;99775.25;;;16.20;49.25
10176;BME280;18221;38.704;0.152;2022-12-18T05:29:13;99772.50;;;16.12;49.27
10176;BME280;18221;38.704;0.152;2022-12-18T05:31:41;99780.19;;;16.06;49.56
10176;BME280;18221;38.704;0.152;2022-12-18T05:34:09;99783.81;;;15.97;49.53
10176;BME280;18221;38.704;0.152;2022-12-18T05:36:38;99791.47;;;15.92;49.58
10176;BME280;18221;38.704;0.152;2022-12-18T05:39:06;99784.03;;;15.86;50.08
10176;BME280;18221;38.704;0.152;2022-12-18T05:41:36;99791.41;;;15.84;50.58
10176;BME280;18221;38.704;0.152;2022-12-18T05:44:05;99797.53;;;15.77;50.60
10176;BME280;18221;38.704;0.152;2022-12-18T05:46:33;99804.53;;;15.78;50.93
10176;BME280;18221;38.704;0.152;2022-12-18T05:49:02;99796.50;;;15.78;50.84
10176;BME280;18221;38.704;0.152;2022-12-18T05:51:31;99805.56;;;15.77;50.96
10176;BME280;18221;38.704;0.152;2022-12-18T05:53:59;99806.91;;;15.81;51.48
10176;BME280;18221;38.704;0.152;2022-12-18T05:56:27;99807.84;;;15.89;51.89
10176;BME280;18221;38.704;0.152;2022-12-18T05:58:57;99812.06;;;15.92;51.95
10176;BME280;18221;38.704;0.152;2022-12-18T06:01:27;99813.88;;;15.91;52.42
10176;BME280;18221;38.704;0.152;2022-12-18T06:03:56;99813.66;;;15.85;52.34
10176;BME280;18221;38.704;0.152;2022-12-18T06:06:27;99818.88;;;15.86;52.75
10176;BME280;18221;38.704;0.152;2022-12-18T06:08:57;99821.53;;;15.86;52.50
10176;BME280;18221;38.704;0.152;2022-12-18T06:11:26;99828.03;;;15.84;52.41
10176;BME280;18221;38.704;0.152;2022-12-18T06:13:57;99820.47;;;15.79;52.52
10176;BME280;18221;38.704;0.152;2022-12-18T06:16:26;99824.13;;;15.78;52.38
10176;BME280;18221;38.704;0.152;2022-12-18T06:18:56;99836.84;;;15.76;52.29
10176;BME280;18221;38.704;0.152;2022-12-18T06:21:24;99839.13;;;15.71;52.61
10176;BME280;18221;38.704;0.152;2022-12-18T06:23:53;99835.91;;;15.68;52.94
10176;BME280;18221;38.704;0.152;2022-12-18T06:26:21;99841.44;;;15.66;52.87
10176;BME280;18221;38.704;0.152;2022-12-18T06:28:50;99849.31;;;15.68;52.87
10176;BME280;18221;38.704;0.152;2022-12-18T06:31:19;99847.09;;;15.63;52.99
10176;BME280;18221;38.704;0.152;2022-12-18T06:33:47;99848.38;;;15.59;53.09
10176;BME280;18221;38.704;0.152;2022-12-18T06:36:16;99849.69;;;15.55;53.10
10176;BME280;18221;38.704;0.152;2022-12-18T06:38:44;99856.41;;;15.59;52.99
10176;BME280;18221;38.704;0.152;2022-12-18T06:41:15;99855.41;;;15.60;53.13
10176;BME280;18221;38.704;0.152;2022-12-18T06:43:44;99860.00;;;15.68;53.56
10176;BME280;18221;38.704;0.152;2022-12-18T06:46:12;99867.28;;;15.75;53.75
10176;BME280;18221;38.704;0.152;2022-12-18T06:48:42;99866.84;;;15.80;54.29
10176;BME280;18221;38.704;0.152;2022-12-18T06:53:46;99873.66;;;15.74;54.42
10176;BME280;18221;38.704;0.152;2022-12-18T06:56:14;99879.81;;;15.75;54.51
10176;BME280;18221;38.704;0.152;2022-12-18T06:58:42;99883.66;;;15.72;55.11
10176;BME280;18221;38.704;0.152;2022-12-18T07:01:12;99883.25;;;15.67;55.10
10176;BME280;18221;38.704;0.152;2022-12-18T07:03:42;99886.94;;;15.66;54.95
10176;BME280;18221;38.704;0.152;2022-12-18T07:06:16;99886.94;;;15.66;55.23
10176;BME280;18221;38.704;0.152;2022-12-18T07:08:45;99888.78;;;15.66;55.50
10176;BME280;18221;38.704;0.152;2022-12-18T07:11:14;99890.78;;;15.64;55.58
10176;BME280;18221;38.704;0.152;2022-12-18T07:13:44;99894.13;;;15.66;55.40
10176;BME280;18221;38.704;0.152;2022-12-18T07:16:15;99900.03;;;15.69;55.41
10176;BME280;18221;38.704;0.152;2022-12-18T07:18:45;99904.78;;;15.75;55.44
10176;BME280;18221;38.704;0.152;2022-12-18T07:21:18;99899.59;;;15.74;55.59
10176;BME280;18221;38.704;0.152;2022-12-18T07:23:49;99899.41;;;15.75;55.49
10176;BME280;18221;38.704;0.152;2022-12-18T07:26:21;99903.09;;;15.74;55.92
10176;BME280;18221;38.704;0.152;2022-12-18T07:28:50;99904.25;;;15.72;55.65
10176;BME280;18221;38.704;0.152;2022-12-18T07:31:21;99900.72;;;15.71;56.05
10176;BME280;18221;38.704;0.152;2022-12-18T07:33:51;99905.91;;;15.73;56.32
10176;BME280;18221;38.704;0.152;2022-12-18T07:36:20;99901.25;;;15.75;55.89
10176;BME280;18221;38.704;0.152;2022-12-18T07:38:49;99904.09;;;15.73;56.23
10176;BME280;18221;38.704;0.152;2022-12-18T07:41:18;99906.94;;;15.72;56.31
10176;BME280;18221;38.704;0.152;2022-12-18T07:43:46;99907.63;;;15.74;56.20
10176;BME280;18221;38.704;0.152;2022-12-18T07:46:16;99905.63;;;15.76;56.15
10176;BME280;18221;38.704;0.152;2022-12-18T07:48:45;99909.16;;;15.76;56.59
10176;BME280;18221;38.704;0.152;2022-12-18T07:51:15;99906.00;;;15.81;56.54
10176;BME280;18221;38.704;0.152;2022-12-18T07:53:44;99902.88;;;15.85;56.62
10176;BME280;18221;38.704;0.152;2022-12-18T07:56:13;99903.13;;;15.92;56.93
10176;BME280;18221;38.704;0.152;2022-12-18T07:58:41;99912.59;;;16.04;56.73
10176;BME280;18221;38.704;0.152;2022-12-18T08:01:12;99907.50;;;16.11;56.42
10176;BME280;18221;38.704;0.152;2022-12-18T08:03:40;99906.88;;;16.17;56.30
10176;BME280;18221;38.704;0.152;2022-12-18T08:06:10;99913.69;;;16.29;56.13
10176;BME280;18221;38.704;0.152;2022-12-18T08:08:39;99915.81;;;16.43;55.60
10176;BME280;18221;38.704;0.152;2022-12-18T08:11:08;99923.06;;;16.50;55.50
10176;BME280;18221;38.704;0.152;2022-12-18T08:13:36;99923.88;;;16.60;55.17
10176;BME280;18221;38.704;0.152;2022-12-18T08:16:07;99920.41;;;16.68;54.82
10176;BME280;18221;38.704;0.152;2022-12-18T08:18:37;99929.81;;;16.72;54.97
10176;BME280;18221;38.704;0.152;2022-12-18T08:21:09;99922.69;;;16.81;54.72
10176;BME280;18221;38.704;0.152;2022-12-18T08:23:40;99930.25;;;16.85;54.42
10176;BME280;18221;38.704;0.152;2022-12-18T08:26:09;99944.56;;;16.94;54.36
10176;BME280;18221;38.704;0.152;2022-12-18T08:28:37;99940.19;;;16.93;54.26
10176;BME280;18221;38.704;0.152;2022-12-18T08:31:06;99946.72;;;16.90;54.50
10176;BME280;18221;38.704;0.152;2022-12-18T08:33:36;99949.72;;;16.87;54.63
10176;BME280;18221;38.704;0.152;2022-12-18T08:36:06;99952.44;;;16.95;54.70
10176;BME280;18221;38.704;0.152;2022-12-18T08:38:37;99955.19;;;17.03;54.31
10176;BME280;18221;38.704;0.152;2022-12-18T08:41:08;99965.97;;;17.11;54.28
10176;BME280;18221;38.704;0.152;2022-12-18T08:43:37;99964.66;;;17.15;54.12
10176;BME280;18221;38.704;0.152;2022-12-18T08:46:26;99963.72;;;17.24;54.22
10176;BME280;18221;38.704;0.152;2022-12-18T08:48:55;99965.41;;;17.25;54.24
10176;BME280;18221;38.704;0.152;2022-12-18T08:51:24;99967.44;;;17.32;54.23
10176;BME280;18221;38.704;0.152;2022-12-18T08:53:53;99979.00;;;17.32;54.39
10176;BME280;18221;38.704;0.152;2022-12-18T08:56:22;99978.22;;;17.40;54.45
10176;BME280;18221;38.704;0.152;2022-12-18T08:58:52;99986.63;;;17.45;54.32
10176;BME280;18221;38.704;0.152;2022-12-18T09:01:22;99991.00;;;17.46;54.33
10176;BME280;18221;38.704;0.152;2022-12-18T09:03:51;99985.31;;;17.49;54.26
10176;BME280;18221;38.704;0.152;2022-12-18T09:06:22;99991.94;;;17.54;54.45
10176;BME280;18221;38.704;0.152;2022-12-18T09:08:52;99992.09;;;17.53;54.66
10176;BME280;18221;38.704;0.152;2022-12-18T09:11:23;100002.50;;;17.56;54.96
10176;BME280;18221;38.704;0.152;2022-12-18T09:13:53;99999.50;;;17.59;55.15
10176;BME280;18221;38.704;0.152;2022-12-18T09:16:23;99996.53;;;17.70;55.01
10176;BME280;18221;38.704;0.152;2022-12-18T09:18:52;99999.09;;;17.79;54.72
10176;BME280;18221;38.704;0.152;2022-12-18T09:21:28;100005.00;;;17.83;54.48
10176;BME280;18221;38.704;0.152;2022-12-18T09:23:58;100011.41;;;17.90;54.62
10176;BME280;18221;38.704;0.152;2022-12-18T09:26:28;99999.31;;;17.94;54.32
10176;BME280;18221;38.704;0.152;2022-12-18T09:28:56;100015.44;;;17.94;54.38
10176;BME280;18221;38.704;0.152;2022-12-18T09:31:25;100018.13;;;17.94;54.65
10176;BME280;18221;38.704;0.152;2022-12-18T09:33:56;100011.09;;;18.01;54.84
10176;BME280;18221;38.704;0.152;2022-12-18T09:36:24;100008.94;;;18.13;54.68
10176;BME280;18221;38.704;0.152;2022-12-18T09:38:53;100015.53;;;18.18;54.61
10176;BME280;18221;38.704;0.152;2022-12-18T09:41:46;100011.84;;;18.27;54.56
10176;BME280;18221;38.704;0.152;2022-12-18T09:44:24;100008.81;;;18.30;54.22
10176;BME280;18221;38.704;0.152;2022-12-18T09:47:07;100015.59;;;18.42;54.35
10176;BME280;18221;38.704;0.152;2022-12-18T09:49:42;100027.56;;;18.48;54.29
10176;BME280;18221;38.704;0.152;2022-12-18T09:52:19;100023.53;;;18.52;54.32
10176;BME280;18221;38.704;0.152;2022-12-18T09:54:54;100027.22;;;18.67;53.92
10176;BME280;18221;38.704;0.152;2022-12-18T09:57:26;100028.59;;;18.71;53.53
10176;BME280;18221;38.704;0.152;2022-12-18T10:00:03;100025.91;;;18.71;53.54
10176;BME280;18221;38.704;0.152;2022-12-18T10:02:32;100031.31;;;18.87;53.55
10176;BME280;18221;38.704;0.152;2022-12-18T10:05:07;100042.22;;;19.18;52.87
10176;BME280;18221;38.704;0.152;2022-12-18T10:07:53;100038.69;;;19.26;52.34
10176;BME280;18221;38.704;0.152;2022-12-18T10:10:37;100045.72;;;19.35;52.24
10176;BME280;18221;38.704;0.152;2022-12-18T10:13:23;100039.88;;;19.39;52.00
10176;BME280;18221;38.704;0.152;2022-12-18T10:16:11;100045.56;;;19.36;51.62
10176;BME280;18221;38.704;0.152;2022-12-18T10:19:15;100043.03;;;19.35;52.33
10176;BME280;18221;38.704;0.152;2022-12-18T10:21:55;100045.91;;;19.33;52.33
10176;BME280;18221;38.704;0.152;2022-12-18T10:24:33;100048.28;;;19.44;52.23
10176;BME280;18221;38.704;0.152;2022-12-18T10:27:14;100055.00;;;19.48;51.91
10176;BME280;18221;38.704;0.152;2022-12-18T10:29:46;100051.31;;;19.49;52.14
10176;BME280;18221;38.704;0.152;2022-12-18T10:32:18;100046.72;;;19.58;51.82
10176;BME280;18221;38.704;0.152;2022-12-18T10:34:48;100051.09;;;19.67;51.72
10176;BME280;18221;38.704;0.152;2022-12-18T10:37:19;100041.16;;;19.59;51.97
10176;BME280;18221;38.704;0.152;2022-12-18T10:40:09;100041.16;;;19.67;51.81
10176;BME280;18221;38.704;0.152;2022-12-18T10:42:38;100047.72;;;19.73;51.54
10176;BME280;18221;38.704;0.152;2022-12-18T10:45:14;100044.50;;;19.78;51.30
10176;BME280;18221;38.704;0.152;2022-12-18T10:47:46;100043.09;;;19.90;51.12
10176;BME280;18221;38.704;0.152;2022-12-18T10:50:26;100040.44;;;19.73;51.01
10176;BME280;18221;38.704;0.152;2022-12-18T10:52:59;100035.91;;;19.66;51.46
10176;BME280;18221;38.704;0.152;2022-12-18T10:55:33;100040.28;;;19.75;51.37
10176;BME280;18221;38.704;0.152;2022-12-18T10:58:23;100028.81;;;19.81;51.01
10176;BME280;18221;38.704;0.152;2022-12-18T11:01:10;100037.75;;;19.73;50.41
10176;BME280;18221;38.704;0.152;2022-12-18T11:03:42;100039.41;;;19.83;50.29
10176;BME280;18221;38.704;0.152;2022-12-18T11:06:13;100040.78;;;19.79;50.19
10176;BME280;18221;38.704;0.152;2022-12-18T11:08:57;100035.34;;;19.87;50.31
10176;BME280;18221;38.704;0.152;2022-12-18T11:11:26;100032.78;;;20.01;50.83
10176;BME280;18221;38.704;0.152;2022-12-18T11:14:04;100037.34;;;19.93;50.63
10176;BME280;18221;38.704;0.152;2022-12-18T11:16:43;100030.75;;;19.95;50.07
10176;BME280;18221;38.704;0.152;2022-12-18T11:19:23;100031.97;;;19.85;49.75
10176;BME280;18221;38.704;0.152;2022-12-18T11:21:53;100036.03;;;19.89;49.98
10176;BME280;18221;38.704;0.152;2022-12-18T11:24:27;100032.69;;;19.79;50.12
10176;BME280;18221;38.704;0.152;2022-12-18T11:26:58;100023.28;;;19.66;49.92
10176;BME280;18221;38.704;0.152;2022-12-18T11:29:34;100021.44;;;19.67;50.11
10176;BME280;18221;38.704;0.152;2022-12-18T11:32:32;100024.66;;;19.62;49.69
10176;BME280;18221;38.704;0.152;2022-12-18T11:35:13;100024.31;;;19.65;49.66
10176;BME280;18221;38.704;0.152;2022-12-18T11:37:48;100023.59;;;19.71;49.64
10176;BME280;18221;38.704;0.152;2022-12-18T11:40:21;100014.97;;;19.84;49.21
10176;BME280;18221;38.704;0.152;2022-12-18T11:43:04;100018.69;;;19.83;49.43
10176;BME280;18221;38.704;0.152;2022-12-18T11:45:41;100018.84;;;19.82;49.61
10176;BME280;18221;38.704;0.152;2022-12-18T11:48:18;100014.63;;;19.87;49.86
10176;BME280;18221;38.704;0.152;2022-12-18T11:50:52;100017.50;;;19.86;49.54
10176;BME280;18221;38.704;0.152;2022-12-18T11:53:22;100018.81;;;19.90;49.53
10176;BME280;18221;38.704;0.152;2022-12-18T11:56:19;100013.47;;;19.82;49.37
10176;BME280;18221;38.704;0.152;2022-12-18T11:59:03;100006.53;;;19.87;49.59
10176;BME280;18221;38.704;0.152;2022-12-18T12:01:48;99998.97;;;19.83;49.76
10176;BME280;18221;38.704;0.152;2022-12-18T12:04:54;99988.59;;;20.02;49.57
10176;BME280;18221;38.704;0.152;2022-12-18T12:07:40;99993.22;;;19.94;49.53
10176;BME280;18221;38.704;0.152;2022-12-18T12:10:26;99990.47;;;20.02;49.80
10176;BME280;18221;38.704;0.152;2022-12-18T12:13:23;99987.50;;;19.89;49.93
10176;BME280;18221;38.704;0.152;2022-12-18T12:16:10;99985.81;;;19.88;50.70
10176;BME280;18221;38.704;0.152;2022-12-18T12:19:01;99991.13;;;20.04;50.64
10176;BME280;18221;38.704;0.152;2022-12-18T12:21:39;99992.59;;;20.14;50.55
10176;BME280;18221;38.704;0.152;2022-12-18T12:24:33;99986.31;;;20.30;49.87
10176;BME280;18221;38.704;0.152;2022-12-18T12:27:16;99986.16;;;20.54;49.29
10176;BME280;18221;38.704;0.152;2022-12-18T12:30:02;99986.19;;;20.46;49.74
10176;BME280;18221;38.704;0.152;2022-12-18T12:32:53;99978.88;;;20.32;49.24
10176;BME280;18221;38.704;0.152;2022-12-18T12:35:42;99983.06;;;20.35;49.51
10176;BME280;18221;38.704;0.152;2022-12-18T12:38:19;99980.13;;;20.44;49.29
10176;BME280;18221;38.704;0.152;2022-12-18T12:40:54;99971.38;;;20.42;49.34
10176;BME280;18221;38.704;0.152;2022-12-18T12:43:35;99976.31;;;20.39;49.16
10176;BME280;18221;38.704;0.152;2022-12-18T12:46:07;99975.88;;;20.19;49.54
10176;BME280;18221;38.704;0.152;2022-12-18T12:48:42;99959.69;;;20.27;49.76
10176;BME280;18221;38.704;0.152;2022-12-18T12:51:17;99960.63;;;20.34;49.43
10176;BME280;18221;38.704;0.152;2022-12-18T12:53:48;99969.72;;;20.41;49.77
10176;BME280;18221;38.704;0.152;2022-12-18T12:56:20;99967.06;;;20.33;50.06
10176;BME280;18221;38.704;0.152;2022-12-18T12:59:06;99952.38;;;20.36;49.96
10176;BME280;18221;38.704;0.152;2022-12-18T13:01:47;99953.44;;;20.49;50.40
10176;BME280;18221;38.704;0.152;2022-12-18T13:04:27;99944.91;;;20.60;50.19
10176;BME280;18221;38.704;0.152;2022-12-18T13:07:06;99951.88;;;20.55;50.08
10176;BME280;18221;38.704;0.152;2022-12-18T13:10:22;99955.13;;;20.50;49.96
10176;BME280;18221;38.704;0.152;2022-12-18T13:12:56;99949.66;;;20.58;50.10
10176;BME280;18221;38.704;0.152;2022-12-18T13:15:36;99950.69;;;20.57;50.19
10176;BME280;18221;38.704;0.152;2022-12-18T13:18:24;99947.22;;;20.49;50.31
10176;BME280;18221;38.704;0.152;2022-12-18T13:21:07;99941.94;;;20.55;50.31
10176;BME280;18221;38.704;0.152;2022-12-18T13:23:40;99947.50;;;20.76;49.83
10176;BME280;18221;38.704;0.152;2022-12-18T13:26:34;99947.41;;;20.84;49.34
10176;BME280;18221;38.704;0.152;2022-12-18T13:29:04;99945.94;;;20.82;49.19
10176;BME280;18221;38.704;0.152;2022-12-18T13:35:37;99952.81;;;20.84;49.45
10176;BME280;18221;38.704;0.152;2022-12-18T13:38:22;99955.63;;;20.91;49.04
10176;BME280;18221;38.704;0.152;2022-12-18T13:40:56;99954.97;;;20.89;48.92
10176;BME280;18221;38.704;0.152;2022-12-18T13:43:39;99944.00;;;20.90;48.14
10176;BME280;18221;38.704;0.152;2022-12-18T13:46:22;99946.78;;;20.82;48.27